createdAt,value
2023-02-04T00:00:30.629Z,31.20
2023-02-04T00:02:58.713Z,35.17
2023-02-04T00:05:26.404Z,36.10
2023-02-04T00:07:54.277Z,36.65
2023-02-04T00:10:23.213Z,33.08
2023-02-04T00:12:50.948Z,31.83
2023-02-04T00:15:23.329Z,30.92
2023-02-04T00:17:50.911Z,41.20
2023-02-04T00:20:19.792Z,34.35
2023-02-04T00:22:47.432Z,36.63
2023-02-04T00:25:15.089Z,33.72
2023-02-04T00:27:42.824Z,34.67
2023-02-04T00:30:11.688Z,41.70
2023-02-04T00:32:40.178Z,33.47
2023-02-04T00:35:07.998Z,36.97
2023-02-04T00:37:36.255Z,35.72
2023-02-04T00:40:05.647Z,38.28
2023-02-04T00:42:33.736Z,38.30
2023-02-04T00:45:01.193Z,33.83
2023-02-04T00:47:28.751Z,32.65
2023-02-04T00:49:57.457Z,37.15
2023-02-04T00:52:25.243Z,37.10
2023-02-04T00:54:52.731Z,37.38
2023-02-04T00:57:20.413Z,33.40
2023-02-04T00:59:48.015Z,35.30
2023-02-04T01:02:18.358Z,35.60
2023-02-04T01:04:46.121Z,32.75
2023-02-04T01:07:13.927Z,35.85
2023-02-04T01:09:41.532Z,33.13
2023-02-04T01:12:09.652Z,38.80
2023-02-04T01:14:37.249Z,44.47
2023-02-04T01:17:06.459Z,40.03
2023-02-04T01:19:34.223Z,40.05
2023-02-04T01:22:01.755Z,42.78
2023-02-04T01:24:29.536Z,40.85
2023-02-04T01:27:15.897Z,45.75
2023-02-04T01:29:44.250Z,45.10
2023-02-04T01:32:11.779Z,43.00
2023-02-04T01:34:40.005Z,45.63
2023-02-04T01:37:07.615Z,46.88
2023-02-04T01:39:36.955Z,44.00
2023-02-04T01:42:04.985Z,47.88
2023-02-04T01:44:33.085Z,39.83
2023-02-04T01:47:00.944Z,39.25
2023-02-04T01:49:29.392Z,37.63
2023-02-04T01:51:57.547Z,35.28
2023-02-04T01:54:26.569Z,32.30
2023-02-04T01:56:55.548Z,36.33
2023-02-04T01:59:24.835Z,34.30
2023-02-04T02:01:53.544Z,32.03
2023-02-04T02:04:30.078Z,32.67
2023-02-04T02:07:01.914Z,31.70
2023-02-04T02:09:32.236Z,31.25
2023-02-04T02:12:03.390Z,32.75
2023-02-04T02:14:31.813Z,30.80
2023-02-04T02:16:59.524Z,33.50
2023-02-04T02:19:31.578Z,32.47
2023-02-04T02:22:25.151Z,33.40
2023-02-04T02:24:53.043Z,31.75
2023-02-04T02:27:22.253Z,28.92
2023-02-04T02:29:51.544Z,26.70
2023-02-04T02:32:21.937Z,31.10
2023-02-04T02:34:49.514Z,30.52
2023-02-04T02:37:17.117Z,28.35
2023-02-04T02:39:46.070Z,28.70
2023-02-04T02:42:17.023Z,27.67
2023-02-04T02:44:46.425Z,27.55
2023-02-04T02:47:16.868Z,29.33
2023-02-04T02:49:44.910Z,30.05
2023-02-04T02:52:13.652Z,29.33
2023-02-04T02:54:42.374Z,29.23
2023-02-04T02:59:39.892Z,31.13
2023-02-04T03:02:11.063Z,27.58
2023-02-04T03:04:43.882Z,29.20
2023-02-04T03:07:14.166Z,29.40
2023-02-04T03:09:42.883Z,31.02
2023-02-04T03:12:10.452Z,25.05
2023-02-04T03:14:39.174Z,25.83
2023-02-04T03:17:11.386Z,36.28
2023-02-04T03:19:39.870Z,30.25
2023-02-04T03:22:08.242Z,31.08
2023-02-04T03:24:37.999Z,29.35
2023-02-04T03:32:08.857Z,25.08
2023-02-04T03:34:36.803Z,36.97
2023-02-04T03:37:04.377Z,20.50
2023-02-04T03:39:32.657Z,18.10
2023-02-04T03:42:00.695Z,13.48
2023-02-04T03:44:28.288Z,10.45
2023-02-04T03:46:56.789Z,10.98
2023-02-04T03:49:24.875Z,8.37
2023-02-04T03:51:52.456Z,7.35
2023-02-04T03:54:20.029Z,8.98
2023-02-04T03:56:47.891Z,8.20
2023-02-04T03:59:15.384Z,9.18
2023-02-04T04:01:42.896Z,11.65
2023-02-04T04:04:10.979Z,11.90
2023-02-04T04:06:38.815Z,11.75
2023-02-04T04:09:06.596Z,13.02
2023-02-04T04:11:34.415Z,12.02
2023-02-04T04:14:03.187Z,16.77
2023-02-04T04:16:30.781Z,13.65
2023-02-04T04:18:59.174Z,15.07
2023-02-04T04:21:26.695Z,12.98
2023-02-04T04:23:54.244Z,11.65
2023-02-04T04:26:22.015Z,11.05
2023-02-04T04:28:49.655Z,9.50
2023-02-04T04:31:17.456Z,8.90
2023-02-04T04:33:45.115Z,9.85
2023-02-04T04:36:12.629Z,10.25
2023-02-04T04:38:40.625Z,8.77
2023-02-04T04:41:08.573Z,6.57
2023-02-04T04:43:36.121Z,7.55
2023-02-04T04:46:03.665Z,9.15
2023-02-04T04:48:31.376Z,8.60
2023-02-04T04:50:59.018Z,10.32
2023-02-04T04:53:26.574Z,7.90
2023-02-04T04:55:54.265Z,9.10
2023-02-04T04:58:22.024Z,7.60
2023-02-04T05:00:49.642Z,9.55
2023-02-04T05:03:17.271Z,7.93
2023-02-04T05:05:44.988Z,8.43
2023-02-04T05:08:17.125Z,8.32
2023-02-04T05:10:44.773Z,8.65
2023-02-04T05:13:12.432Z,9.05
2023-02-04T05:15:39.954Z,10.52
2023-02-04T05:18:07.881Z,12.15
2023-02-04T05:20:35.572Z,12.65
2023-02-04T05:23:05.467Z,14.93
2023-02-04T05:25:33.396Z,13.43
2023-02-04T05:28:01.073Z,17.10
2023-02-04T05:30:28.916Z,18.58
2023-02-04T05:32:56.829Z,18.33
2023-02-04T05:35:24.485Z,15.30
2023-02-04T05:37:51.944Z,15.43
2023-02-04T05:40:19.473Z,14.77
2023-02-04T05:42:47.016Z,12.35
2023-02-04T05:45:16.573Z,13.90
2023-02-04T05:47:44.491Z,15.25
2023-02-04T05:50:12.106Z,13.85
2023-02-04T05:52:40.475Z,17.08
2023-02-04T05:55:10.906Z,14.70
2023-02-04T05:57:39.757Z,13.80
2023-02-04T06:00:08.136Z,18.10
2023-02-04T06:02:42.076Z,14.88
2023-02-04T06:05:09.716Z,18.38
2023-02-04T06:07:37.877Z,18.20
2023-02-04T06:10:06.942Z,17.23
2023-02-04T06:12:35.026Z,16.37
2023-02-04T06:15:02.920Z,14.80
2023-02-04T06:17:30.853Z,17.27
2023-02-04T06:19:58.486Z,20.17
2023-02-04T06:22:26.891Z,16.05
2023-02-04T06:24:55.651Z,14.65
2023-02-04T06:27:23.621Z,13.52
2023-02-04T06:29:54.919Z,14.98
2023-02-04T06:32:23.552Z,13.20
2023-02-04T06:34:51.274Z,17.75
2023-02-04T06:37:18.869Z,14.10
2023-02-04T06:39:46.491Z,16.15
2023-02-04T06:42:14.119Z,16.40
2023-02-04T06:44:41.798Z,15.60
2023-02-04T06:47:09.526Z,14.65
2023-02-04T06:49:37.173Z,15.93
2023-02-04T06:52:05.828Z,14.65
2023-02-04T06:54:33.731Z,14.57
2023-02-04T06:57:06.749Z,16.70
2023-02-04T06:59:35.847Z,13.80
2023-02-04T07:02:04.612Z,15.43
2023-02-04T07:04:32.094Z,15.55
2023-02-04T07:06:59.757Z,16.52
2023-02-04T07:09:27.515Z,14.85
2023-02-04T07:11:55.079Z,16.85
2023-02-04T07:14:22.759Z,18.08
2023-02-04T07:16:50.209Z,15.10
2023-02-04T07:19:20.188Z,14.73
2023-02-04T07:21:48.582Z,14.50
2023-02-04T07:24:16.109Z,15.52
2023-02-04T07:26:43.633Z,14.35
2023-02-04T07:29:17.462Z,14.65
2023-02-04T07:31:51.658Z,13.68
2023-02-04T07:34:19.290Z,11.65
2023-02-04T07:36:47.161Z,14.77
2023-02-04T07:39:14.853Z,19.33
2023-02-04T07:41:42.945Z,19.05
2023-02-04T07:44:13.386Z,17.25
2023-02-04T07:46:41.612Z,16.13
2023-02-04T07:49:09.404Z,14.00
2023-02-04T07:51:37.364Z,15.32
2023-02-04T07:54:04.880Z,15.35
2023-02-04T07:56:33.297Z,14.82
2023-02-04T07:59:00.872Z,19.13
2023-02-04T08:01:28.499Z,16.63
2023-02-04T08:03:56.282Z,18.90
2023-02-04T08:06:23.782Z,16.95
2023-02-04T08:08:51.554Z,17.20
2023-02-04T08:11:22.745Z,10.93
2023-02-04T08:13:50.706Z,12.40
2023-02-04T08:16:18.403Z,13.18
2023-02-04T08:18:45.840Z,11.35
2023-02-04T08:21:13.592Z,12.02
2023-02-04T08:23:41.961Z,12.88
2023-02-04T08:26:11.519Z,11.77
2023-02-04T08:28:39.237Z,12.45
2023-02-04T08:31:07.342Z,11.35
2023-02-04T08:36:04.551Z,10.68
2023-02-04T08:38:32.301Z,11.88
2023-02-04T08:41:02.757Z,10.00
2023-02-04T08:43:30.817Z,11.57
2023-02-04T08:45:58.619Z,13.85
2023-02-04T08:48:26.242Z,13.93
2023-02-04T08:50:53.786Z,14.27
2023-02-04T08:53:21.594Z,13.25
2023-02-04T08:55:49.173Z,12.93
2023-02-04T08:58:16.824Z,18.73
2023-02-04T09:00:44.442Z,14.52
2023-02-04T09:03:12.357Z,13.13
2023-02-04T09:05:39.943Z,12.70
2023-02-04T09:08:07.574Z,11.30
2023-02-04T09:10:35.441Z,11.95
2023-02-04T09:13:03.239Z,13.27
2023-02-04T09:15:31.299Z,16.83
2023-02-04T09:18:12.073Z,11.60
2023-02-04T09:20:39.818Z,11.45
2023-02-04T09:23:12.215Z,9.50
2023-02-04T09:25:40.675Z,9.15
2023-02-04T09:28:12.638Z,11.38
2023-02-04T09:30:41.658Z,11.73
2023-02-04T09:33:11.640Z,12.20
2023-02-04T09:35:40.178Z,13.10
2023-02-04T09:38:07.759Z,14.05
2023-02-04T09:40:38.342Z,17.73
2023-02-04T09:43:07.021Z,15.55
2023-02-04T09:45:36.634Z,11.77
2023-02-04T09:48:07.111Z,15.00
2023-02-04T09:50:35.940Z,13.88
2023-02-04T09:53:07.696Z,17.30
2023-02-04T09:55:39.085Z,12.20
2023-02-04T09:58:14.585Z,13.48
2023-02-04T10:00:42.429Z,13.73
2023-02-04T10:03:18.504Z,12.43
2023-02-04T10:05:47.063Z,10.73
2023-02-04T10:08:39.029Z,11.88
2023-02-04T10:11:09.392Z,9.90
2023-02-04T10:13:42.578Z,10.38
2023-02-04T10:16:32.052Z,15.30
2023-02-04T10:19:03.611Z,9.70
2023-02-04T10:21:33.233Z,8.98
2023-02-04T10:24:04.361Z,9.48
2023-02-04T10:26:32.997Z,10.10
2023-02-04T10:29:02.393Z,10.52
2023-02-04T10:31:36.163Z,8.95
2023-02-04T10:34:12.757Z,10.30
2023-02-04T10:36:42.529Z,13.55
2023-02-04T10:39:18.210Z,13.10
2023-02-04T10:41:57.747Z,12.50
2023-02-04T10:47:01.062Z,12.25
2023-02-04T10:49:28.994Z,9.88
2023-02-04T10:51:57.856Z,12.52
2023-02-04T10:54:31.716Z,12.95
2023-02-04T10:57:17.531Z,11.45
2023-02-04T10:59:47.711Z,10.65
2023-02-04T11:02:43.521Z,12.95
2023-02-04T11:05:20.233Z,11.23
2023-02-04T11:07:49.630Z,12.23
2023-02-04T11:10:23.502Z,15.05
2023-02-04T11:12:54.400Z,13.35
2023-02-04T11:15:50.002Z,13.40
2023-02-04T11:18:21.083Z,10.43
2023-02-04T11:20:50.963Z,10.85
2023-02-04T11:23:27.569Z,9.88
2023-02-04T11:26:20.336Z,8.73
2023-02-04T11:28:56.487Z,9.30
2023-02-04T11:31:24.115Z,9.80
2023-02-04T11:34:19.417Z,9.80
2023-02-04T11:36:59.039Z,10.35
2023-02-04T11:39:38.327Z,10.63
2023-02-04T11:42:13.120Z,9.85
2023-02-04T11:44:41.235Z,13.63
2023-02-04T11:47:09.621Z,9.43
2023-02-04T11:49:37.986Z,10.63
2023-02-04T11:52:14.100Z,10.35
2023-02-04T11:54:41.752Z,10.25
2023-02-04T11:57:12.542Z,12.27
2023-02-04T11:59:42.429Z,10.75
2023-02-04T12:02:19.661Z,10.85
2023-02-04T12:04:55.369Z,10.00
2023-02-04T12:07:28.706Z,14.88
2023-02-04T12:09:57.574Z,10.38
2023-02-04T12:12:30.793Z,12.90
2023-02-04T12:15:13.776Z,9.75
2023-02-04T12:17:44.997Z,9.85
2023-02-04T12:20:14.199Z,11.15
2023-02-04T12:22:41.878Z,10.23
2023-02-04T12:25:09.736Z,11.82
2023-02-04T12:27:38.021Z,11.50
2023-02-04T12:30:06.209Z,8.77
2023-02-04T12:32:33.764Z,10.95
2023-02-04T12:35:04.862Z,10.95
2023-02-04T12:37:32.761Z,11.65
2023-02-04T12:40:00.296Z,11.85
2023-02-04T12:42:27.899Z,13.70
2023-02-04T12:44:55.391Z,10.52
2023-02-04T12:47:23.107Z,8.38
2023-02-04T12:49:50.839Z,10.05
2023-02-04T12:52:18.487Z,10.82
2023-02-04T12:54:46.007Z,12.85
2023-02-04T12:57:14.629Z,11.30
2023-02-04T12:59:42.093Z,13.50
2023-02-04T13:02:11.178Z,13.15
2023-02-04T13:04:39.097Z,11.63
2023-02-04T13:07:07.972Z,10.30
2023-02-04T13:09:37.106Z,13.60
2023-02-04T13:12:06.128Z,11.02
2023-02-04T13:14:33.891Z,11.82
2023-02-04T13:17:01.595Z,13.48
2023-02-04T13:19:29.325Z,12.07
2023-02-04T13:21:56.961Z,10.77
2023-02-04T13:24:24.827Z,13.02
2023-02-04T13:26:52.635Z,12.32
2023-02-04T13:29:21.893Z,11.07
2023-02-04T13:31:49.782Z,10.18
2023-02-04T13:34:17.412Z,12.60
2023-02-04T13:36:45.021Z,11.77
2023-02-04T13:39:12.583Z,10.43
2023-02-04T13:41:41.030Z,10.15
2023-02-04T13:44:08.572Z,13.02
2023-02-04T13:46:36.521Z,10.57
2023-02-04T13:49:04.450Z,10.20
2023-02-04T13:51:32.822Z,11.07
2023-02-04T13:54:00.544Z,13.15
2023-02-04T13:56:28.800Z,14.27
2023-02-04T13:58:56.358Z,12.82
2023-02-04T14:01:24.110Z,10.90
2023-02-04T14:03:51.952Z,13.10
2023-02-04T14:06:21.731Z,15.75
2023-02-04T14:08:49.549Z,11.77
2023-02-04T14:11:17.089Z,13.40
2023-02-04T14:13:45.785Z,12.27
2023-02-04T14:16:15.371Z,15.77
2023-02-04T14:18:42.938Z,12.77
2023-02-04T14:21:10.764Z,12.98
2023-02-04T14:23:38.493Z,17.92
2023-02-04T14:26:05.997Z,11.98
2023-02-04T14:28:33.479Z,13.73
2023-02-04T14:31:01.884Z,12.27
2023-02-04T14:33:29.513Z,11.07
2023-02-04T14:35:57.208Z,10.65
2023-02-04T14:38:30.809Z,9.02
2023-02-04T14:40:58.830Z,9.23
2023-02-04T14:43:27.217Z,8.45
2023-02-04T14:45:55.461Z,8.02
2023-02-04T14:48:22.968Z,9.32
2023-02-04T14:50:50.651Z,8.10
2023-02-04T14:53:18.272Z,8.90
2023-02-04T14:55:46.075Z,8.10
2023-02-04T14:58:13.810Z,12.63
2023-02-04T15:00:41.457Z,8.07
2023-02-04T15:03:09.226Z,8.18
2023-02-04T15:05:36.958Z,10.55
2023-02-04T15:08:05.127Z,12.05
2023-02-04T15:10:33.068Z,11.32
2023-02-04T15:13:01.152Z,13.70
2023-02-04T15:15:31.337Z,12.40
2023-02-04T15:17:59.061Z,15.32
2023-02-04T15:20:27.143Z,12.07
2023-02-04T15:40:01.101Z,14.85
2023-02-04T15:42:29.527Z,13.25
2023-02-04T15:44:57.140Z,16.55
2023-02-04T15:47:25.119Z,16.60
2023-02-04T15:49:52.862Z,18.58
2023-02-04T15:52:25.206Z,21.40
2023-02-04T15:54:53.592Z,17.08
2023-02-04T15:57:21.230Z,17.88
2023-02-04T15:59:48.839Z,19.05
2023-02-04T16:02:16.826Z,21.30
2023-02-04T16:04:45.517Z,24.88
2023-02-04T16:07:13.479Z,22.87
2023-02-04T16:09:41.138Z,25.60
2023-02-04T16:12:08.981Z,25.80
2023-02-04T16:14:36.728Z,19.52
2023-02-04T16:17:08.376Z,22.45
2023-02-04T16:19:36.160Z,16.05
2023-02-04T16:22:05.512Z,17.58
2023-02-04T16:24:34.515Z,17.17
2023-02-04T16:27:02.281Z,13.02
2023-02-04T16:29:30.962Z,18.55
2023-02-04T16:31:59.001Z,17.60
2023-02-04T16:34:26.693Z,17.55
2023-02-04T16:36:54.275Z,20.02
2023-02-04T16:39:22.599Z,20.60
2023-02-04T16:41:50.327Z,16.73
2023-02-04T16:44:18.016Z,15.00
2023-02-04T16:46:45.759Z,15.57
2023-02-04T16:49:14.091Z,15.27
2023-02-04T16:51:41.706Z,13.40
2023-02-04T16:54:10.213Z,15.82
2023-02-04T16:56:37.855Z,23.55
2023-02-04T16:59:05.552Z,15.82
2023-02-04T17:01:36.777Z,15.52
2023-02-04T17:04:04.857Z,17.75
2023-02-04T17:06:32.911Z,17.40
2023-02-04T17:09:00.594Z,15.02
2023-02-04T17:11:34.229Z,16.30
2023-02-04T17:14:04.658Z,18.95
2023-02-04T17:16:34.225Z,14.27
2023-02-04T17:19:02.441Z,18.90
2023-02-04T17:21:31.428Z,19.00
2023-02-04T17:24:04.321Z,15.98
2023-02-04T17:26:37.505Z,16.75
2023-02-04T17:29:14.206Z,16.65
2023-02-04T17:31:44.648Z,22.55
2023-02-04T17:34:12.457Z,22.08
2023-02-04T17:36:40.232Z,16.33
2023-02-04T17:39:08.092Z,20.13
2023-02-04T17:41:35.801Z,18.58
2023-02-04T17:44:03.640Z,17.85
2023-02-04T17:46:31.641Z,15.73
2023-02-04T17:48:59.546Z,18.95
2023-02-04T17:51:27.122Z,15.52
2023-02-04T17:53:54.768Z,23.42
2023-02-04T17:56:22.437Z,23.35
2023-02-04T17:58:50.105Z,21.27
2023-02-04T18:01:21.637Z,24.35
2023-02-04T18:03:49.621Z,15.98
2023-02-04T18:06:27.344Z,22.88
2023-02-04T18:09:02.203Z,19.52
2023-02-04T18:11:36.274Z,25.05
2023-02-04T18:14:27.378Z,23.27
2023-02-04T18:16:58.452Z,21.67
2023-02-04T18:19:31.693Z,21.10
2023-02-04T18:21:59.585Z,15.82
2023-02-04T18:24:39.686Z,18.48
2023-02-04T18:27:15.797Z,19.42
2023-02-04T18:29:45.463Z,19.63
2023-02-04T18:32:21.288Z,20.75
2023-02-04T18:34:57.474Z,21.63
2023-02-04T18:37:36.233Z,25.08
2023-02-04T18:40:09.837Z,20.33
2023-02-04T18:42:45.916Z,21.17
2023-02-04T18:45:24.200Z,24.20
2023-02-04T18:47:56.971Z,17.80
2023-02-04T18:50:33.030Z,25.67
2023-02-04T18:53:18.676Z,19.30
2023-02-04T18:55:49.551Z,17.17
2023-02-04T18:58:17.219Z,17.90
2023-02-04T19:00:50.313Z,19.00
2023-02-04T19:03:37.626Z,17.70
2023-02-04T19:06:33.606Z,20.95
2023-02-04T19:09:10.022Z,17.20
2023-02-04T19:12:08.387Z,18.17
2023-02-04T19:14:39.058Z,19.08
2023-02-04T19:17:39.610Z,21.83
2023-02-04T19:20:23.002Z,20.45
2023-02-04T19:22:54.975Z,20.63
2023-02-04T19:25:30.832Z,20.77
2023-02-04T19:28:01.442Z,20.45
2023-02-04T19:30:29.421Z,16.77
2023-02-04T19:32:58.700Z,20.08
2023-02-04T19:35:29.669Z,16.13
2023-02-04T19:38:02.451Z,18.13
2023-02-04T19:40:33.797Z,17.02
2023-02-04T19:43:20.908Z,16.35
2023-02-04T19:45:51.087Z,22.00
2023-02-04T19:48:24.464Z,21.30
2023-02-04T19:50:53.280Z,18.33
2023-02-04T19:55:54.446Z,23.95
2023-02-04T19:58:28.755Z,28.77
2023-02-04T20:01:02.999Z,26.02
2023-02-04T20:03:38.730Z,24.42
2023-02-04T20:06:09.569Z,18.30
2023-02-04T20:08:54.572Z,17.38
2023-02-04T20:11:31.267Z,18.95
2023-02-04T20:14:20.226Z,16.67
2023-02-04T20:17:00.165Z,16.58
2023-02-04T20:19:35.018Z,17.10
2023-02-04T20:22:17.785Z,17.40
2023-02-04T20:24:47.997Z,18.73
2023-02-04T20:27:28.867Z,16.13
2023-02-04T20:30:19.182Z,16.90
2023-02-04T20:32:51.546Z,17.55
2023-02-04T20:35:19.021Z,20.15
2023-02-04T20:37:54.293Z,18.00
2023-02-04T20:40:27.177Z,21.77
2023-02-04T20:42:58.472Z,17.23
2023-02-04T20:45:36.797Z,25.48
2023-02-04T20:48:16.254Z,30.33
2023-02-04T20:53:35.996Z,36.00
2023-02-04T20:56:19.207Z,23.90
2023-02-04T20:58:48.455Z,21.83
2023-02-04T21:01:22.632Z,26.15
2023-02-04T21:03:51.332Z,19.10
2023-02-04T21:06:31.707Z,20.33
2023-02-04T21:09:00.092Z,19.17
2023-02-04T21:11:27.668Z,23.40
2023-02-04T21:13:55.660Z,24.70
2023-02-04T21:16:23.222Z,19.50
2023-02-04T21:18:51.044Z,18.75
2023-02-04T21:21:20.427Z,18.42
2023-02-04T21:23:47.987Z,20.95
2023-02-04T21:26:16.882Z,19.67
2023-02-04T21:28:45.007Z,21.88
2023-02-04T21:31:12.839Z,19.52
2023-02-04T21:33:40.506Z,21.08
2023-02-04T21:36:08.787Z,18.25
2023-02-04T21:38:36.895Z,18.73
2023-02-04T21:41:04.972Z,16.60
2023-02-04T21:43:32.907Z,18.13
2023-02-04T21:46:00.628Z,20.50
2023-02-04T21:48:28.444Z,18.75
2023-02-04T21:50:55.948Z,23.35
2023-02-04T21:53:23.994Z,17.05
2023-02-04T21:55:52.400Z,21.25
2023-02-04T21:58:20.219Z,17.98
2023-02-04T22:00:49.646Z,17.08
2023-02-04T22:03:17.529Z,15.25
2023-02-04T22:05:45.692Z,17.63
2023-02-04T22:08:13.332Z,17.98
2023-02-04T22:10:40.899Z,19.02
2023-02-04T22:13:47.049Z,21.63
2023-02-04T22:16:17.024Z,18.55
2023-02-04T22:18:44.515Z,15.60
2023-02-04T22:21:12.237Z,15.27
2023-02-04T22:23:40.383Z,16.00
2023-02-04T22:26:11.328Z,15.52
2023-02-04T22:28:38.964Z,17.23
2023-02-04T22:31:07.194Z,17.55
2023-02-04T22:33:34.857Z,17.17
2023-02-04T22:36:06.397Z,16.05
2023-02-04T22:38:34.256Z,17.02
2023-02-04T22:41:03.872Z,17.50
2023-02-04T22:43:32.119Z,15.88
2023-02-04T22:46:00.345Z,19.38
2023-02-04T22:48:27.906Z,15.02
2023-02-04T22:50:56.658Z,16.48
2023-02-04T22:53:24.487Z,18.17
2023-02-04T22:55:52.005Z,19.05
2023-02-04T22:58:19.548Z,20.13
2023-02-04T23:00:47.652Z,19.08
2023-02-04T23:03:16.025Z,20.43
2023-02-04T23:05:45.340Z,18.50
2023-02-04T23:08:14.233Z,21.55
2023-02-04T23:10:41.865Z,18.75
2023-02-04T23:13:28.488Z,19.05
2023-02-04T23:15:56.527Z,20.15
2023-02-04T23:18:24.305Z,21.05
2023-02-04T23:20:52.454Z,19.23
2023-02-04T23:23:20.391Z,22.60
2023-02-04T23:25:49.955Z,17.13
2023-02-04T23:28:17.976Z,20.88
2023-02-04T23:30:45.672Z,16.73
2023-02-04T23:33:13.446Z,18.27
2023-02-04T23:35:41.003Z,19.08
2023-02-04T23:38:08.718Z,20.23
2023-02-04T23:40:36.374Z,24.90
2023-02-04T23:43:04.019Z,21.48
2023-02-04T23:45:32.075Z,19.92
2023-02-04T23:47:59.856Z,20.98
2023-02-04T23:50:27.534Z,18.48
2023-02-04T23:52:55.056Z,20.67
2023-02-04T23:55:22.588Z,19.98
2023-02-04T23:57:50.820Z,19.95
